Time;durP1;ratioP1;P1;durP2;ratioP2;P2;SDS_P1;SDS_P2;PMS_P1;PMS_P2;Temp;Humidity;BMP_temperature;BMP_pressure;BME280_temperature;BME280_humidity;BME280_pressure;Samples;Min_cycle;Max_cycle;Signal;HPM_P1;HPM_P2
2024/02/18 00:02:00;;;;;;;5.73;1.13;;;;;;;7.91;82.01;102935.69;5033505;28;20467;-70
2024/02/18 00:04:27;;;;;;;2.27;0.70;;;;;;;7.90;81.45;102941.31;5022464;28;20428;-70
2024/02/18 00:06:55;;;;;;;6.37;1.60;;;;;;;7.90;82.00;102944.00;5029883;28;20439;-70
2024/02/18 00:09:21;;;;;;;2.07;0.77;;;;;;;7.90;81.70;102938.59;5023794;28;20464;-70
2024/02/18 00:11:48;;;;;;;2.10;0.70;;;;;;;7.81;80.93;102936.19;5030221;22;20502;-69
2024/02/18 00:14:15;;;;;;;2.83;0.70;;;;;;;7.84;81.17;102935.75;5013610;28;20456;-69
2024/02/18 00:16:41;;;;;;;2.03;0.93;;;;;;;7.83;81.55;102942.22;5014022;28;21016;-69
2024/02/18 00:19:08;;;;;;;5.57;1.03;;;;;;;7.88;82.21;102941.53;5015220;28;20428;-68
2024/02/18 00:21:37;;;;;;;4.30;0.90;;;;;;;7.91;81.30;102935.69;5028189;28;20862;-68
2024/02/18 00:24:05;;;;;;;2.67;0.63;;;;;;;7.87;82.12;102931.78;5034348;28;20439;-68
2024/02/18 00:26:32;;;;;;;2.17;0.80;;;;;;;7.89;81.77;102934.28;5033331;28;20428;-68
2024/02/18 00:28:59;;;;;;;2.43;0.87;;;;;;;7.82;81.39;102942.41;5033581;28;20502;-68
2024/02/18 00:31:25;;;;;;;4.50;0.77;;;;;;;7.88;82.30;102929.91;5033409;28;20483;-68
2024/02/18 00:33:52;;;;;;;2.00;0.67;;;;;;;7.92;83.24;102923.00;5033403;28;20518;-68
2024/02/18 00:36:20;;;;;;;3.10;0.87;;;;;;;7.91;83.35;102913.25;5033526;28;20439;-68
2024/02/18 00:38:47;;;;;;;2.00;0.73;;;;;;;7.94;83.22;102912.81;5033523;28;20443;-68
2024/02/18 00:41:15;;;;;;;4.57;0.73;;;;;;;7.88;82.75;102906.47;5033523;28;20467;-68
2024/02/18 00:43:41;;;;;;;1.80;0.50;;;;;;;7.83;82.54;102917.09;5033263;28;20493;-68
2024/02/18 00:46:08;;;;;;;2.03;0.63;;;;;;;7.82;82.53;102907.34;5033467;28;20439;-68
2024/02/18 00:48:35;;;;;;;1.87;0.67;;;;;;;7.75;82.29;102910.13;5033830;28;20526;-68
2024/02/18 00:51:01;;;;;;;1.90;0.60;;;;;;;7.67;83.10;102913.13;5033615;28;20443;-68
2024/02/18 00:53:28;;;;;;;2.37;1.10;;;;;;;7.58;85.54;102914.47;5032851;28;20473;-68
2024/02/18 00:55:55;;;;;;;5.73;0.90;;;;;;;7.62;85.14;102912.16;5033051;28;20949;-68
2024/02/18 00:58:23;;;;;;;1.60;0.40;;;;;;;7.53;85.59;102909.75;5033325;28;20447;-68
2024/02/18 01:00:49;;;;;;;1.90;0.60;;;;;;;7.59;85.82;102910.72;5033385;28;20962;-68
2024/02/18 01:03:16;;;;;;;2.47;0.80;;;;;;;7.69;86.13;102905.63;5032811;28;20547;-68
2024/02/18 01:05:43;;;;;;;4.70;1.13;;;;;;;7.77;86.44;102910.72;5033144;28;20469;-67
2024/02/18 01:08:09;;;;;;;3.03;0.80;;;;;;;7.76;85.92;102909.06;5032953;28;20442;-67
2024/02/18 01:10:36;;;;;;;1.90;0.50;;;;;;;7.79;86.85;102900.53;5032675;28;20431;-67
2024/02/18 01:13:03;;;;;;;2.83;1.00;;;;;;;7.79;87.88;102895.16;5032594;28;20574;-67
2024/02/18 01:15:31;;;;;;;3.63;0.63;;;;;;;7.80;87.57;102888.69;5034971;28;20431;-68
2024/02/18 01:17:58;;;;;;;1.70;0.50;;;;;;;7.78;88.07;102888.09;5037149;28;20442;-68
2024/02/18 01:20:24;;;;;;;2.97;1.00;;;;;;;7.75;88.66;102888.56;5036893;28;21017;-67
2024/02/18 01:22:51;;;;;;;2.00;0.70;;;;;;;7.75;89.43;102880.47;5037388;28;20908;-67
2024/02/18 01:25:17;;;;;;;2.13;0.67;;;;;;;7.83;89.47;102874.75;5036647;28;20482;-67
2024/02/18 01:27:45;;;;;;;2.13;0.73;;;;;;;7.81;89.71;102874.16;5037299;28;20470;-67
2024/02/18 01:30:12;;;;;;;2.17;1.00;;;;;;;7.75;89.84;102872.38;5036920;28;20563;-67
2024/02/18 01:32:40;;;;;;;5.40;0.90;;;;;;;7.73;88.35;102870.94;5025912;28;20662;-67
2024/02/18 01:35:08;;;;;;;3.93;0.73;;;;;;;7.70;88.14;102872.22;5017088;28;20522;-67
2024/02/18 01:37:34;;;;;;;4.53;0.90;;;;;;;7.53;88.51;102881.94;5017167;28;20442;-68
2024/02/18 01:40:01;;;;;;;1.83;0.60;;;;;;;7.53;88.77;102881.94;5017196;28;20443;-68
2024/02/18 01:42:27;;;;;;;3.30;1.03;;;;;;;7.50;87.68;102879.69;5016645;28;20971;-68
2024/02/18 01:44:54;;;;;;;1.80;0.40;;;;;;;7.43;86.31;102887.00;5017111;28;20432;-67
2024/02/18 01:47:21;;;;;;;2.17;0.83;;;;;;;7.37;85.99;102888.75;5017795;28;20525;-68
2024/02/18 01:49:51;;;;;;;1.70;0.50;;;;;;;7.36;86.71;102888.97;5031335;28;20446;-68
2024/02/18 01:52:18;;;;;;;2.40;0.77;;;;;;;7.40;87.67;102891.00;5036349;28;20490;-68
2024/02/18 01:54:45;;;;;;;1.80;0.60;;;;;;;7.36;88.34;102888.97;5036676;28;20445;-68
2024/02/18 01:57:12;;;;;;;3.73;0.57;;;;;;;7.34;88.12;102881.91;5036495;28;20469;-68
2024/02/18 01:59:41;;;;;;;1.90;0.67;;;;;;;7.38;89.04;102881.47;5036680;28;20550;-68
2024/02/18 02:02:09;;;;;;;1.80;0.57;;;;;;;7.32;90.04;102889.41;5036335;28;20452;-68
2024/02/18 02:04:36;;;;;;;2.63;0.90;;;;;;;7.30;91.17;102894.22;5036477;28;20803;-69
2024/02/18 02:07:05;;;;;;;10.13;0.80;;;;;;;7.24;91.71;102895.06;5036562;28;20991;-68
2024/02/18 02:09:31;;;;;;;2.67;1.07;;;;;;;7.24;92.14;102889.69;5035897;28;20939;-68
2024/02/18 02:11:58;;;;;;;2.10;0.60;;;;;;;7.28;91.95;102880.13;5036056;28;20579;-68
2024/02/18 02:14:25;;;;;;;2.43;0.73;;;;;;;7.20;92.26;102872.31;5036259;28;20423;-68
2024/02/18 02:16:52;;;;;;;5.17;0.70;;;;;;;7.21;91.95;102873.13;5036160;28;20851;-68
2024/02/18 02:19:22;;;;;;;1.90;0.57;;;;;;;7.03;90.47;102863.13;5035847;28;20475;-68
2024/02/18 02:21:48;;;;;;;3.13;0.63;;;;;;;7.03;90.35;102858.56;5036081;28;20538;-68
2024/02/18 02:24:16;;;;;;;1.73;0.60;;;;;;;7.03;89.87;102857.75;5035531;28;21018;-68
2024/02/18 02:26:46;;;;;;;1.80;0.57;;;;;;;7.03;89.29;102873.91;5034679;28;20522;-68
2024/02/18 02:29:15;;;;;;;2.83;0.93;;;;;;;7.00;89.01;102869.81;5035821;28;20530;-68
2024/02/18 02:31:44;;;;;;;1.80;0.60;;;;;;;6.96;89.22;102865.91;5035342;28;20442;-68
2024/02/18 02:34:11;;;;;;;8.53;1.20;;;;;;;6.90;89.60;102861.38;5035468;28;20966;-68
2024/02/18 02:36:38;;;;;;;3.20;0.70;;;;;;;6.85;89.49;102868.47;5035938;28;20459;-68
2024/02/18 02:39:05;;;;;;;2.00;0.73;;;;;;;6.76;89.47;102862.53;5035408;28;21008;-68
2024/02/18 02:41:32;;;;;;;5.47;1.20;;;;;;;6.67;89.44;102858.47;5035571;28;20435;-68
2024/02/18 02:43:59;;;;;;;2.83;0.60;;;;;;;6.58;88.38;102853.34;5035264;28;20454;-68
2024/02/18 02:46:27;;;;;;;1.70;0.47;;;;;;;6.47;88.35;102847.84;5035143;28;20443;-68
2024/02/18 02:48:54;;;;;;;3.63;0.67;;;;;;;6.36;87.35;102852.03;5035805;28;20878;-68
2024/02/18 02:51:20;;;;;;;2.27;0.90;;;;;;;6.22;87.68;102845.91;5035470;28;20439;-68
2024/02/18 02:53:47;;;;;;;2.90;0.70;;;;;;;6.05;88.16;102856.34;5035180;28;20574;-68
2024/02/18 02:56:14;;;;;;;1.80;0.50;;;;;;;5.95;88.73;102849.78;5035001;28;20954;-68
2024/02/18 02:58:40;;;;;;;1.80;0.50;;;;;;;5.89;87.93;102845.19;5035065;28;20541;-68
2024/02/18 03:01:07;;;;;;;1.70;0.43;;;;;;;5.76;89.46;102852.31;5035195;28;20525;-68
2024/02/18 03:03:35;;;;;;;5.93;0.80;;;;;;;5.66;90.55;102846.53;5034492;28;20975;-68
2024/02/18 03:06:02;;;;;;;2.50;0.63;;;;;;;5.53;91.29;102842.06;5034701;28;20530;-68
2024/02/18 03:08:29;;;;;;;2.73;0.80;;;;;;;5.52;92.13;102837.69;5035102;28;20474;-68
2024/02/18 03:10:56;;;;;;;2.47;0.70;;;;;;;5.47;93.63;102825.94;5034943;28;20522;-68
2024/02/18 03:13:22;;;;;;;1.70;0.50;;;;;;;5.37;94.58;102834.44;5034368;28;21054;-68
2024/02/18 03:15:49;;;;;;;1.77;0.47;;;;;;;5.31;95.23;102827.19;5035042;28;20853;-68
2024/02/18 03:18:16;;;;;;;1.80;0.60;;;;;;;5.24;95.53;102829.09;5034904;28;20435;-67
2024/02/18 03:20:44;;;;;;;1.80;0.63;;;;;;;5.06;96.51;102827.88;5034982;28;20444;-66
2024/02/18 03:23:10;;;;;;;2.00;0.47;;;;;;;4.98;96.83;102828.09;5035378;28;20487;-75
2024/02/18 03:25:38;;;;;;;2.63;1.00;;;;;;;5.01;96.49;102826.84;5034402;28;20467;-68
2024/02/18 03:28:06;;;;;;;1.80;0.60;;;;;;;4.96;96.45;102819.44;5034711;28;20450;-68
2024/02/18 03:30:32;;;;;;;1.90;0.50;;;;;;;4.87;97.25;102818.00;5034670;28;20482;-68
2024/02/18 03:32:59;;;;;;;2.33;0.70;;;;;;;4.79;97.92;102824.38;5034193;28;20530;-68
2024/02/18 03:35:27;;;;;;;2.83;1.23;;;;;;;4.70;98.34;102820.25;5035016;28;20526;-68
2024/02/18 03:37:57;;;;;;;1.80;0.40;;;;;;;4.55;98.83;102823.13;5033928;28;20535;-68
2024/02/18 03:40:23;;;;;;;1.80;0.53;;;;;;;4.57;99.09;102831.00;5033576;28;20438;-68
2024/02/18 03:42:50;;;;;;;1.70;0.50;;;;;;;4.53;99.33;102827.06;5034129;28;20963;-68
2024/02/18 03:45:17;;;;;;;1.70;0.50;;;;;;;4.60;98.38;102819.81;5034681;28;20478;-68
2024/02/18 03:47:44;;;;;;;1.63;0.40;;;;;;;4.49;97.82;102818.59;5034359;28;20466;-68
2024/02/18 03:50:14;;;;;;;2.60;0.53;;;;;;;4.35;97.77;102813.41;5033610;28;20435;-68
2024/02/18 03:52:43;;;;;;;2.03;0.60;;;;;;;4.30;97.00;102814.03;5033917;28;20487;-68
2024/02/18 03:55:12;;;;;;;2.03;0.80;;;;;;;4.13;95.12;102827.00;5033869;28;20453;-68
2024/02/18 03:57:39;;;;;;;1.70;0.40;;;;;;;4.04;96.98;102826.34;5034063;28;20489;-68
2024/02/18 04:00:09;;;;;;;1.70;0.50;;;;;;;4.03;96.89;102818.50;5033270;28;20978;-68
2024/02/18 04:02:38;;;;;;;2.73;1.13;;;;;;;3.91;96.78;102822.78;5034271;28;20455;-68
2024/02/18 04:05:05;;;;;;;2.20;0.77;;;;;;;3.79;96.62;102822.53;5034398;28;20497;-68
2024/02/18 04:07:32;;;;;;;2.17;0.60;;;;;;;3.75;96.05;102827.47;5033706;28;20470;-68
2024/02/18 04:09:59;;;;;;;1.90;0.60;;;;;;;3.74;96.16;102817.78;5033394;28;20518;-68
2024/02/18 04:12:27;;;;;;;1.70;0.47;;;;;;;3.71;96.62;102815.50;5033334;28;20853;-68
2024/02/18 04:14:53;;;;;;;1.70;0.50;;;;;;;3.61;96.27;102816.91;5033812;28;20453;-68
2024/02/18 04:17:20;;;;;;;1.70;0.50;;;;;;;3.54;97.39;102814.16;5033843;28;20467;-68
2024/02/18 04:19:47;;;;;;;2.17;0.70;;;;;;;3.64;97.91;102808.47;5033586;28;20526;-68
2024/02/18 04:22:13;;;;;;;1.83;0.60;;;;;;;3.69;98.15;102803.34;5033385;28;20546;-68
2024/02/18 04:24:40;;;;;;;1.87;0.60;;;;;;;3.64;98.92;102798.56;5033958;28;20473;-68
2024/02/18 04:27:08;;;;;;;1.70;0.40;;;;;;;3.62;99.52;102789.06;5033863;28;20435;-67
2024/02/18 04:29:36;;;;;;;2.17;0.60;;;;;;;3.59;99.44;102784.13;5033626;28;20521;-67
2024/02/18 04:32:03;;;;;;;1.60;0.40;;;;;;;3.59;99.29;102793.00;5033067;28;21046;-67
2024/02/18 04:34:30;;;;;;;3.03;0.60;;;;;;;3.58;100.00;102788.63;5033772;28;20479;-68
2024/02/18 04:36:56;;;;;;;1.90;0.67;;;;;;;3.64;99.37;102785.19;5033869;28;20856;-67
2024/02/18 04:39:23;;;;;;;2.03;0.90;;;;;;;3.57;100.00;102786.97;5033000;28;20947;-67
2024/02/18 04:41:50;;;;;;;1.70;0.40;;;;;;;3.39;100.00;102787.53;5032720;28;20495;-67
2024/02/18 04:44:16;;;;;;;1.70;0.47;;;;;;;3.42;100.00;102799.72;5033382;28;20439;-67
2024/02/18 04:46:44;;;;;;;1.60;0.30;;;;;;;3.32;100.00;102796.53;5032998;28;20518;-67
2024/02/18 04:49:12;;;;;;;1.70;0.60;;;;;;;3.42;100.00;102795.16;5033757;28;20475;-67
2024/02/18 04:51:39;;;;;;;1.60;0.40;;;;;;;3.49;100.00;102797.88;5036743;28;20530;-67
2024/02/18 04:54:05;;;;;;;2.07;0.90;;;;;;;3.50;100.00;102791.50;5036917;28;20510;-67
2024/02/18 04:56:32;;;;;;;1.90;0.67;;;;;;;3.36;100.00;102795.13;5037046;28;20470;-67
2024/02/18 04:58:59;;;;;;;3.97;1.17;;;;;;;3.28;100.00;102805.00;5037758;28;20501;-67
2024/02/18 05:01:25;;;;;;;1.90;0.73;;;;;;;3.27;100.00;102811.34;5037121;28;20518;-67
2024/02/18 05:03:53;;;;;;;1.70;0.50;;;;;;;3.32;100.00;102816.16;5036601;28;20526;-67
2024/02/18 05:06:20;;;;;;;1.70;0.50;;;;;;;3.35;100.00;102813.03;5037160;28;20449;-67
2024/02/18 05:08:47;;;;;;;1.90;0.70;;;;;;;3.36;100.00;102813.88;5037382;28;20455;-67
2024/02/18 05:11:13;;;;;;;3.10;0.83;;;;;;;3.27;100.00;102822.06;5036897;28;20438;-67
2024/02/18 05:13:40;;;;;;;1.57;0.30;;;;;;;3.32;99.68;102815.28;5036682;28;20518;-67
2024/02/18 05:16:08;;;;;;;8.33;0.80;;;;;;;3.36;99.38;102801.31;5036714;28;20463;-67
2024/02/18 05:18:35;;;;;;;1.70;0.60;;;;;;;3.26;98.45;102800.84;5036964;28;20446;-67
2024/02/18 05:21:04;;;;;;;2.00;0.60;;;;;;;3.20;98.79;102812.34;5036978;28;20476;-67
2024/02/18 05:23:32;;;;;;;3.63;1.10;;;;;;;3.12;100.00;102813.31;5036703;28;20459;-67
2024/02/18 05:25:58;;;;;;;3.40;1.67;;;;;;;3.12;100.00;102801.78;5036718;28;20524;-67
2024/02/18 05:28:25;;;;;;;2.90;0.97;;;;;;;3.13;100.00;102785.53;5036950;28;20469;-67
2024/02/18 05:30:52;;;;;;;1.80;0.70;;;;;;;3.17;99.39;102791.31;5036724;28;20514;-67
2024/02/18 05:33:18;;;;;;;1.83;0.67;;;;;;;3.08;98.72;102793.31;5037025;28;20962;-67
2024/02/18 05:35:45;;;;;;;1.80;0.60;;;;;;;2.96;98.44;102797.56;5036725;28;20443;-67
2024/02/18 05:38:13;;;;;;;3.30;2.73;;;;;;;2.97;99.36;102791.22;5036772;28;20570;-67
2024/02/18 05:40:40;;;;;;;1.80;0.80;;;;;;;2.99;99.10;102795.31;5036297;28;20857;-67
2024/02/18 05:43:06;;;;;;;1.80;0.57;;;;;;;3.00;99.19;102798.81;5036521;28;20530;-67
2024/02/18 05:45:33;;;;;;;1.93;0.83;;;;;;;2.96;100.00;102792.19;5036293;28;20470;-67
2024/02/18 05:47:59;;;;;;;1.80;0.50;;;;;;;3.03;100.00;102791.22;5036518;28;20474;-67
2024/02/18 05:50:26;;;;;;;2.00;0.70;;;;;;;2.97;100.00;102781.31;5035699;28;20970;-67
2024/02/18 05:52:53;;;;;;;1.60;0.40;;;;;;;3.03;100.00;102779.69;5035784;28;20573;-67
2024/02/18 05:55:21;;;;;;;1.57;0.30;;;;;;;3.13;100.00;102782.03;5036247;28;20988;-69
2024/02/18 05:57:47;;;;;;;1.97;0.63;;;;;;;3.21;100.00;102776.50;5036923;28;20449;-66
2024/02/18 06:00:17;;;;;;;2.43;0.60;;;;;;;3.27;100.00;102771.19;5036126;28;20463;-66
2024/02/18 06:02:44;;;;;;;3.10;1.17;;;;;;;3.27;100.00;102773.03;5019875;28;20495;-67
2024/02/18 06:05:12;;;;;;;2.20;1.10;;;;;;;3.15;100.00;102772.78;5036584;28;20439;-67
2024/02/18 06:07:39;;;;;;;1.60;0.40;;;;;;;3.16;100.00;102771.75;5036493;28;20443;-69
2024/02/18 06:10:06;;;;;;;2.30;0.87;;;;;;;3.16;100.00;102769.06;5036457;28;20446;-70
2024/02/18 06:12:34;;;;;;;8.30;1.67;;;;;;;3.20;100.00;102770.34;5043827;22;20596;-70
2024/02/18 06:15:01;;;;;;;1.60;0.50;;;;;;;3.26;100.00;102774.88;5016230;28;20491;-69
2024/02/18 06:17:27;;;;;;;2.57;0.87;;;;;;;3.25;100.00;102773.25;5016427;28;20539;-69
2024/02/18 06:19:54;;;;;;;1.70;0.60;;;;;;;3.29;100.00;102774.50;5017365;28;20444;-69
2024/02/18 06:22:20;;;;;;;1.70;0.53;;;;;;;3.35;100.00;102772.06;5016255;28;20628;-70
2024/02/18 06:24:48;;;;;;;2.20;0.93;;;;;;;3.33;100.00;102766.91;5016003;28;20440;-70
2024/02/18 06:27:16;;;;;;;2.07;0.83;;;;;;;3.25;100.00;102772.41;5015603;28;21029;-70
2024/02/18 06:29:45;;;;;;;2.17;0.57;;;;;;;3.23;100.00;102766.41;5015396;28;20928;-69
2024/02/18 06:32:12;;;;;;;2.47;1.27;;;;;;;3.18;100.00;102775.03;5016603;28;20492;-70
2024/02/18 06:34:39;;;;;;;2.73;0.73;;;;;;;3.25;99.31;102767.06;5016158;28;20550;-70
2024/02/18 06:37:05;;;;;;;4.53;1.03;;;;;;;3.22;98.85;102768.28;5015735;28;20527;-70
2024/02/18 06:39:32;;;;;;;3.30;0.90;;;;;;;3.17;99.86;102765.38;4997858;28;21016;-70
2024/02/18 06:41:59;;;;;;;4.13;1.00;;;;;;;3.20;100.00;102764.97;5015434;28;20464;-70
2024/02/18 06:44:25;;;;;;;3.43;1.70;;;;;;;3.22;100.00;102759.41;5015399;28;20479;-70
2024/02/18 06:46:53;;;;;;;5.53;0.80;;;;;;;3.26;100.00;102764.19;5015239;28;20460;-70
2024/02/18 06:49:20;;;;;;;5.17;1.50;;;;;;;3.32;100.00;102762.56;5015592;28;20882;-70
2024/02/18 06:51:47;;;;;;;5.53;1.10;;;;;;;3.43;99.93;102751.28;5015150;28;20766;-70
2024/02/18 06:54:13;;;;;;;2.43;0.80;;;;;;;3.54;100.00;102737.31;5015330;28;20597;-70
2024/02/18 06:56:40;;;;;;;2.53;1.00;;;;;;;3.65;100.00;102751.16;5015114;28;20444;-70
2024/02/18 06:59:06;;;;;;;5.33;2.20;;;;;;;3.78;100.00;102752.03;5015612;28;20459;-70
2024/02/18 07:01:33;;;;;;;3.13;0.90;;;;;;;3.90;100.00;102736.19;5024969;28;20935;-70
2024/02/18 07:04:01;;;;;;;3.43;1.67;;;;;;;4.08;100.00;102737.47;5015347;28;20446;-70
2024/02/18 07:06:28;;;;;;;11.47;2.10;;;;;;;4.19;100.00;102729.59;5015496;28;20451;-70
2024/02/18 07:08:55;;;;;;;2.90;1.30;;;;;;;4.37;100.00;102733.53;5014951;28;20437;-70
2024/02/18 07:11:22;;;;;;;5.63;1.17;;;;;;;4.48;100.00;102732.94;5015486;28;20675;-70
2024/02/18 07:13:49;;;;;;;3.53;1.67;;;;;;;4.63;100.00;102727.34;5013582;28;21020;-70
2024/02/18 07:16:16;;;;;;;5.80;1.63;;;;;;;4.82;100.00;102723.78;5015716;28;20446;-70
2024/02/18 07:18:42;;;;;;;3.50;1.33;;;;;;;4.98;100.00;102719.84;5014632;28;20450;-70
2024/02/18 07:21:11;;;;;;;2.80;1.00;;;;;;;5.16;100.00;102727.22;5015605;28;20954;-70
2024/02/18 07:23:38;;;;;;;4.93;1.20;;;;;;;5.28;100.00;102728.22;5014969;28;20818;-71
2024/02/18 07:26:05;;;;;;;7.73;1.00;;;;;;;5.45;100.00;102726.72;5014887;28;20448;-70
2024/02/18 07:28:31;;;;;;;4.60;1.30;;;;;;;5.59;100.00;102724.78;5014953;28;20444;-70
2024/02/18 07:30:58;;;;;;;2.10;0.90;;;;;;;5.72;100.00;102721.19;5015221;28;20943;-70
2024/02/18 07:33:25;;;;;;;2.77;0.73;;;;;;;5.86;100.00;102713.88;5014520;28;20526;-69
2024/02/18 07:35:51;;;;;;;1.90;0.77;;;;;;;5.96;99.41;102711.56;5014516;28;20441;-70
2024/02/18 07:38:19;;;;;;;3.83;0.83;;;;;;;6.07;98.36;102700.09;5014505;28;20944;-68
2024/02/18 07:40:46;;;;;;;4.03;1.07;;;;;;;6.21;97.00;102707.03;5014603;28;20471;-68
2024/02/18 07:43:14;;;;;;;2.53;1.07;;;;;;;6.26;94.99;102704.50;5017838;28;21018;-69
2024/02/18 07:45:41;;;;;;;2.80;0.97;;;;;;;6.35;94.52;102709.63;5023182;28;20983;-68
2024/02/18 07:48:08;;;;;;;2.00;0.70;;;;;;;6.38;93.29;102704.63;5014025;28;20472;-69
2024/02/18 07:50:36;;;;;;;4.20;1.00;;;;;;;6.47;92.36;102697.09;5014714;28;20838;-69
2024/02/18 07:53:02;;;;;;;1.90;0.60;;;;;;;6.50;91.42;102702.81;5014340;28;21054;-70
2024/02/18 07:55:31;;;;;;;2.63;0.90;;;;;;;6.50;90.33;102705.53;5014289;28;20475;-69
2024/02/18 07:57:58;;;;;;;10.40;1.07;;;;;;;6.53;89.86;102699.69;5014521;28;20870;-68
2024/02/18 08:00:26;;;;;;;2.00;0.60;;;;;;;6.55;89.46;102691.41;5014506;28;20444;-70
2024/02/18 08:02:52;;;;;;;2.27;0.70;;;;;;;6.57;89.57;102689.31;5013455;28;20543;-70
2024/02/18 08:05:19;;;;;;;2.30;0.67;;;;;;;6.64;89.34;102687.41;5014275;28;20940;-70
2024/02/18 08:07:46;;;;;;;2.33;0.57;;;;;;;6.62;89.29;102677.88;5014752;28;20476;-70
2024/02/18 08:10:12;;;;;;;2.47;0.97;;;;;;;6.57;90.39;102673.16;5027601;28;20533;-70
2024/02/18 08:12:40;;;;;;;3.73;1.27;;;;;;;6.61;90.21;102666.28;5033607;28;20565;-70
2024/02/18 08:15:08;;;;;;;2.03;0.80;;;;;;;6.66;90.56;102668.31;5018648;28;20484;-70
2024/02/18 08:17:35;;;;;;;9.17;1.20;;;;;;;6.74;90.45;102655.38;5014155;28;20476;-70
2024/02/18 08:20:01;;;;;;;2.97;0.90;;;;;;;6.78;90.11;102651.19;5013813;28;20432;-69
2024/02/18 08:22:28;;;;;;;5.97;1.27;;;;;;;6.77;89.67;102654.94;5013619;28;20518;-69
2024/02/18 08:24:55;;;;;;;2.43;0.73;;;;;;;6.80;88.99;102653.66;5013597;28;20849;-69
2024/02/18 08:27:21;;;;;;;2.10;0.80;;;;;;;6.80;88.46;102638.31;4994229;28;20528;-69
2024/02/18 08:29:49;;;;;;;1.80;0.60;;;;;;;6.80;88.64;102640.19;4994229;28;20449;-69
2024/02/18 08:32:16;;;;;;;2.60;0.90;;;;;;;6.81;89.19;102634.56;4994180;28;20469;-69
2024/02/18 08:34:43;;;;;;;3.80;0.80;;;;;;;6.87;88.88;102626.66;5001407;28;20850;-69
2024/02/18 08:37:09;;;;;;;7.40;0.80;;;;;;;6.86;89.90;102627.69;5013522;28;20436;-70
2024/02/18 08:39:36;;;;;;;2.10;0.90;;;;;;;6.92;89.82;102621.41;5013958;28;20451;-69
2024/02/18 08:42:03;;;;;;;1.80;0.50;;;;;;;6.95;90.04;102618.25;5013756;28;20460;-70
2024/02/18 08:44:29;;;;;;;1.80;0.60;;;;;;;6.98;89.50;102601.63;5013593;28;21015;-69
2024/02/18 08:46:57;;;;;;;2.10;0.80;;;;;;;7.07;89.21;102606.47;5013337;28;20781;-69
2024/02/18 08:49:24;;;;;;;4.23;0.93;;;;;;;7.19;88.44;102613.81;5013556;28;20808;-69
2024/02/18 08:51:51;;;;;;;3.07;1.30;;;;;;;7.23;86.93;102607.72;5013535;28;20546;-69
2024/02/18 08:54:17;;;;;;;3.60;1.23;;;;;;;7.32;85.61;102603.66;5014120;28;20487;-69
2024/02/18 08:56:44;;;;;;;2.20;0.77;;;;;;;7.37;85.60;102588.66;5013250;28;20564;-69
2024/02/18 08:59:11;;;;;;;1.97;0.90;;;;;;;7.37;84.81;102583.28;5012658;28;20531;-70
2024/02/18 09:01:37;;;;;;;2.57;0.70;;;;;;;7.42;85.22;102580.72;5012978;28;20846;-70
2024/02/18 09:04:05;;;;;;;2.10;0.60;;;;;;;7.45;86.28;102577.56;5013798;28;20436;-70
2024/02/18 09:06:32;;;;;;;1.80;0.60;;;;;;;7.58;86.36;102585.44;5013608;28;20538;-70
2024/02/18 09:08:58;;;;;;;2.30;0.60;;;;;;;7.69;84.05;102586.50;5013480;28;20881;-70
2024/02/18 09:11:25;;;;;;;2.30;0.90;;;;;;;7.71;84.18;102574.44;5013406;28;20531;-70
2024/02/18 09:13:52;;;;;;;2.77;1.33;;;;;;;7.73;84.46;102569.63;5013487;28;20476;-69
2024/02/18 09:16:18;;;;;;;3.90;1.03;;;;;;;7.76;85.16;102571.88;5013797;28;20526;-70
2024/02/18 09:18:45;;;;;;;2.17;1.00;;;;;;;7.86;84.58;102567.78;5013496;28;20447;-70
2024/02/18 09:21:13;;;;;;;2.50;0.83;;;;;;;7.89;84.10;102564.63;5013457;28;20440;-70
2024/02/18 09:23:40;;;;;;;2.70;0.83;;;;;;;7.89;84.24;102559.22;5012999;28;20517;-70
2024/02/18 09:26:09;;;;;;;2.87;0.90;;;;;;;7.89;83.31;102568.13;5013359;28;20472;-69
2024/02/18 09:28:35;;;;;;;4.30;1.50;;;;;;;7.93;83.53;102561.22;5012868;28;20440;-70
2024/02/18 09:31:02;;;;;;;2.00;0.70;;;;;;;7.90;84.22;102567.06;5013837;28;20896;-70
2024/02/18 09:33:29;;;;;;;7.17;1.00;;;;;;;7.98;83.89;102563.22;5013546;28;20493;-70
2024/02/18 09:35:55;;;;;;;2.53;0.80;;;;;;;8.06;82.70;102573.66;5013302;28;20484;-68
2024/02/18 09:38:23;;;;;;;1.90;0.53;;;;;;;8.09;82.97;102570.47;5017081;28;20543;-72
2024/02/18 09:40:50;;;;;;;2.63;1.23;;;;;;;8.04;83.03;102573.88;5017748;28;20987;-71
2024/02/18 09:43:17;;;;;;;2.30;0.90;;;;;;;8.11;83.31;102562.16;5016011;28;20878;-71
2024/02/18 09:45:46;;;;;;;3.23;1.20;;;;;;;8.14;83.40;102557.09;5011397;28;20460;-71
2024/02/18 09:48:16;;;;;;;2.30;0.73;;;;;;;8.19;82.96;102557.22;5017020;28;20448;-71
2024/02/18 09:50:43;;;;;;;3.70;1.30;;;;;;;8.16;82.85;102563.09;5016675;28;20463;-71
2024/02/18 09:53:12;;;;;;;2.77;1.07;;;;;;;8.19;82.91;102559.06;5021890;28;20463;-71
2024/02/18 09:55:43;;;;;;;3.33;1.17;;;;;;;8.24;83.72;102556.50;5016156;28;20522;-71
2024/02/18 09:58:10;;;;;;;2.40;1.40;;;;;;;8.33;84.16;102553.22;5015850;28;20460;-71
2024/02/18 10:00:37;;;;;;;3.20;1.10;;;;;;;8.47;84.31;102547.59;5016244;28;20433;-71
2024/02/18 10:03:04;;;;;;;2.37;1.00;;;;;;;8.57;83.68;102539.69;5016190;28;20459;-71
2024/02/18 10:05:34;;;;;;;2.70;1.20;;;;;;;8.57;83.66;102539.69;5016828;28;20523;-72
2024/02/18 10:08:01;;;;;;;2.47;0.90;;;;;;;8.54;84.51;102530.19;5016107;28;20971;-72
2024/02/18 10:10:31;;;;;;;4.10;1.63;;;;;;;8.63;83.85;102524.38;5016021;28;20445;-72
2024/02/18 10:12:59;;;;;;;2.80;1.00;;;;;;;8.73;83.47;102525.44;5017131;28;20543;-72
2024/02/18 10:15:26;;;;;;;3.53;1.10;;;;;;;8.82;82.58;102526.69;5015588;28;21095;-72
2024/02/18 10:17:52;;;;;;;6.83;1.53;;;;;;;8.86;82.17;102521.63;5016208;28;20454;-72
2024/02/18 10:20:19;;;;;;;6.80;1.33;;;;;;;8.90;80.45;102517.38;5015330;28;20439;-72
2024/02/18 10:22:46;;;;;;;2.43;1.13;;;;;;;8.89;81.05;102514.91;5015885;28;20543;-71
2024/02/18 10:25:13;;;;;;;3.20;1.30;;;;;;;8.94;80.27;102513.13;5016649;28;20519;-71
2024/02/18 10:27:40;;;;;;;2.60;1.10;;;;;;;8.99;80.19;102510.50;5015815;28;20861;-71
2024/02/18 10:30:10;;;;;;;4.97;1.40;;;;;;;9.00;79.63;102514.03;5015484;28;20515;-71
2024/02/18 10:32:37;;;;;;;3.40;1.50;;;;;;;9.03;79.06;102506.25;5015899;28;21020;-71
2024/02/18 10:35:05;;;;;;;2.30;1.07;;;;;;;9.11;79.23;102499.63;5008734;28;20492;-71
2024/02/18 10:37:36;;;;;;;2.80;1.10;;;;;;;9.17;79.80;102495.97;5016315;28;20464;-71
2024/02/18 10:40:12;;;;;;;3.03;1.43;;;;;;;9.27;79.02;102490.72;5015215;28;20913;-72
2024/02/18 10:42:42;;;;;;;3.00;1.37;;;;;;;9.39;78.65;102489.84;5015997;28;20482;-71
2024/02/18 10:45:13;;;;;;;4.00;1.40;;;;;;;9.48;78.06;102497.28;5015915;28;20423;-71
2024/02/18 10:47:41;;;;;;;4.07;1.80;;;;;;;9.55;78.31;102487.09;5014946;28;20512;-71
2024/02/18 10:50:08;;;;;;;7.97;1.87;;;;;;;9.63;77.49;102483.16;5015347;28;20436;-71
2024/02/18 10:52:44;;;;;;;6.40;2.20;;;;;;;9.72;77.16;102476.25;5015420;28;20460;-71
2024/02/18 10:55:12;;;;;;;3.77;1.20;;;;;;;9.85;76.99;102465.09;5021242;28;20517;-71
2024/02/18 10:57:43;;;;;;;3.93;1.47;;;;;;;9.98;75.20;102463.09;5031563;28;20432;-71
2024/02/18 11:00:17;;;;;;;5.47;1.73;;;;;;;10.04;76.84;102462.91;5015609;28;20428;-71
2024/02/18 11:02:52;;;;;;;4.20;1.80;;;;;;;10.22;75.14;102461.75;5015845;28;20467;-71
2024/02/18 11:05:20;;;;;;;5.23;1.50;;;;;;;10.31;74.88;102454.91;5015119;28;20420;-71
2024/02/18 11:07:48;;;;;;;4.87;1.63;;;;;;;10.41;75.32;102456.09;5015350;28;20440;-71
2024/02/18 11:10:16;;;;;;;5.87;1.80;;;;;;;10.60;75.08;102443.81;5014787;28;20527;-71
2024/02/18 11:12:45;;;;;;;4.73;1.77;;;;;;;10.71;75.06;102437.41;5014766;28;20475;-73
2024/02/18 11:15:13;;;;;;;3.90;1.90;;;;;;;10.76;73.09;102432.06;5014701;28;21018;-71
2024/02/18 11:17:42;;;;;;;6.40;1.80;;;;;;;10.84;73.05;102426.16;5015246;28;20471;-70
2024/02/18 11:20:12;;;;;;;5.93;2.23;;;;;;;10.83;72.31;102416.38;5015108;28;20440;-69
2024/02/18 11:22:40;;;;;;;3.20;1.60;;;;;;;10.90;73.83;102415.38;5014372;28;20522;-71
2024/02/18 11:25:08;;;;;;;3.53;1.43;;;;;;;10.97;73.47;102414.06;5018870;28;20468;-71
2024/02/18 11:27:36;;;;;;;4.77;1.83;;;;;;;11.07;74.42;102402.50;5013978;28;20531;-71
2024/02/18 11:30:04;;;;;;;3.67;1.73;;;;;;;11.11;73.31;102390.03;5018639;28;21035;-72
2024/02/18 11:32:32;;;;;;;3.90;1.63;;;;;;;11.23;73.21;102390.69;5014930;28;20467;-72